createdAt,value
2023-06-01T00:00:17.245Z,4.57
2023-06-01T00:03:20.241Z,4.47
2023-06-01T00:06:22.688Z,3.88
2023-06-01T00:09:26.958Z,4.35
2023-06-01T00:12:29.190Z,4.53
2023-06-01T00:15:31.276Z,3.95
2023-06-01T00:18:35.292Z,4.25
2023-06-01T00:21:41.341Z,4.43
2023-06-01T00:24:49.059Z,4.43
2023-06-01T00:27:50.777Z,4.65
2023-06-01T00:30:52.859Z,4.70
2023-06-01T00:33:55.146Z,4.90
2023-06-01T00:36:57.137Z,4.47
2023-06-01T00:40:00.593Z,4.53
2023-06-01T00:43:03.357Z,4.65
2023-06-01T00:46:05.936Z,4.60
2023-06-01T00:49:08.461Z,4.40
2023-06-01T00:52:10.445Z,4.57
2023-06-01T00:55:16.735Z,4.88
2023-06-01T00:58:18.753Z,4.32
2023-06-01T01:01:20.736Z,4.63
2023-06-01T01:04:22.955Z,4.50
2023-06-01T01:07:33.637Z,4.43
2023-06-01T01:10:42.309Z,4.50
2023-06-01T01:13:51.333Z,5.43
2023-06-01T01:17:00.939Z,4.95
2023-06-01T01:20:10.076Z,4.60
2023-06-01T01:23:39.177Z,4.95
2023-06-01T01:26:57.784Z,4.78
2023-06-01T01:30:05.676Z,5.97
2023-06-01T01:33:10.925Z,5.10
2023-06-01T01:36:13.088Z,5.00
2023-06-01T01:39:15.039Z,4.95
2023-06-01T01:42:19.319Z,5.72
2023-06-01T01:45:23.243Z,5.10
2023-06-01T01:48:40.617Z,5.40
2023-06-01T01:51:51.188Z,5.18
2023-06-01T01:54:57.326Z,4.72
2023-06-01T01:58:03.407Z,5.10
2023-06-01T02:01:10.434Z,5.38
2023-06-01T02:04:12.392Z,4.97
2023-06-01T02:07:16.482Z,4.63
2023-06-01T02:10:18.529Z,4.82
2023-06-01T02:13:20.289Z,4.35
2023-06-01T02:16:23.630Z,4.82
2023-06-01T02:19:26.237Z,4.40
2023-06-01T02:22:28.933Z,4.60
2023-06-01T02:25:30.915Z,4.55
2023-06-01T02:28:33.530Z,4.50
2023-06-01T02:31:39.872Z,4.57
2023-06-01T02:34:41.594Z,5.07
2023-06-01T02:37:46.100Z,4.53
2023-06-01T02:40:48.532Z,4.72
2023-06-01T02:43:53.353Z,5.00
2023-06-01T02:46:59.727Z,4.95
2023-06-01T02:50:01.665Z,4.82
2023-06-01T02:53:04.481Z,5.15
2023-06-01T02:56:06.725Z,4.85
2023-06-01T02:59:08.451Z,4.95
2023-06-01T03:02:11.991Z,5.10
2023-06-01T03:05:17.175Z,5.15
2023-06-01T03:08:19.323Z,5.20
2023-06-01T03:11:23.315Z,5.45
2023-06-01T03:14:27.028Z,4.63
2023-06-01T03:17:33.726Z,4.50
2023-06-01T03:20:36.003Z,4.97
2023-06-01T03:23:38.511Z,5.00
2023-06-01T03:26:40.476Z,4.90
2023-06-01T03:29:42.449Z,5.05
2023-06-01T03:32:53.626Z,4.72
2023-06-01T03:35:56.869Z,4.43
2023-06-01T03:39:00.351Z,5.07
2023-06-01T03:42:02.429Z,5.15
2023-06-01T03:45:07.884Z,5.05
2023-06-01T03:48:13.556Z,4.95
2023-06-01T03:51:15.566Z,6.18
2023-06-01T03:54:17.956Z,5.70
2023-06-01T03:57:19.717Z,5.20
2023-06-01T04:00:21.928Z,5.90
2023-06-01T04:03:28.594Z,5.13
2023-06-01T04:06:30.339Z,6.20
2023-06-01T04:09:32.776Z,5.53
2023-06-01T04:12:37.030Z,5.45
2023-06-01T04:15:39.551Z,5.90
2023-06-01T04:18:45.432Z,6.03
2023-06-01T04:21:47.561Z,6.70
2023-06-01T04:24:51.511Z,6.75
2023-06-01T04:27:56.001Z,6.53
2023-06-01T04:30:58.179Z,6.55
2023-06-01T04:34:02.006Z,6.55
2023-06-01T04:37:06.858Z,6.13
2023-06-01T04:40:10.243Z,6.30
2023-06-01T04:43:12.219Z,6.30
2023-06-01T04:46:16.339Z,6.22
2023-06-01T04:49:20.174Z,6.15
2023-06-01T04:52:21.911Z,5.95
2023-06-01T04:55:24.679Z,6.03
2023-06-01T04:58:26.673Z,5.72
2023-06-01T05:01:28.682Z,5.43
2023-06-01T05:04:31.844Z,5.15
2023-06-01T05:07:33.936Z,5.82
2023-06-01T05:10:39.361Z,5.18
2023-06-01T05:13:41.972Z,5.47
2023-06-01T05:16:46.101Z,5.93
2023-06-01T05:19:51.358Z,5.80
2023-06-01T05:22:53.372Z,6.57
2023-06-01T05:25:55.410Z,6.35
2023-06-01T05:28:57.630Z,7.13
2023-06-01T05:32:02.062Z,5.82
2023-06-01T05:35:06.355Z,5.63
2023-06-01T05:38:08.190Z,5.57
2023-06-01T05:41:10.182Z,5.70
2023-06-01T05:44:12.596Z,5.32
2023-06-01T05:47:15.000Z,5.88
2023-06-01T05:50:20.503Z,5.35
2023-06-01T05:53:23.630Z,5.72
2023-06-01T05:56:28.306Z,5.78
2023-06-01T05:59:30.234Z,5.40
2023-06-01T06:02:32.146Z,5.15
2023-06-01T06:05:38.175Z,5.28
2023-06-01T06:08:42.505Z,4.85
2023-06-01T06:11:44.483Z,5.05
2023-06-01T06:14:49.219Z,4.88
2023-06-01T06:17:51.210Z,4.93
2023-06-01T06:20:54.580Z,4.38
2023-06-01T06:23:56.355Z,4.90
2023-06-01T06:26:58.586Z,4.60
2023-06-01T06:30:00.538Z,4.40
2023-06-01T06:33:04.605Z,4.85
2023-06-01T06:36:10.552Z,4.68
2023-06-01T06:39:12.825Z,4.80
2023-06-01T06:42:15.113Z,4.65
2023-06-01T06:45:17.380Z,4.63
2023-06-01T06:48:19.125Z,4.78
2023-06-01T06:51:24.892Z,4.68
2023-06-01T06:54:29.170Z,4.78
2023-06-01T06:57:31.857Z,5.03
2023-06-01T07:00:33.682Z,5.00
2023-06-01T07:03:35.901Z,4.45
2023-06-01T07:06:42.804Z,4.70
2023-06-01T07:09:44.582Z,4.50
2023-06-01T07:12:46.541Z,4.70
2023-06-01T07:15:48.300Z,4.90
2023-06-01T07:18:50.389Z,4.78
2023-06-01T07:21:58.116Z,4.65
2023-06-01T07:25:01.085Z,4.93
2023-06-01T07:28:04.222Z,5.18
2023-06-01T07:31:08.722Z,5.38
2023-06-01T07:34:11.899Z,4.85
2023-06-01T07:37:26.798Z,5.10
2023-06-01T07:40:28.888Z,5.35
2023-06-01T07:43:34.809Z,5.15
2023-06-01T07:46:36.650Z,5.43
2023-06-01T07:49:39.826Z,5.38
2023-06-01T07:52:43.163Z,6.15
2023-06-01T07:55:45.186Z,5.20
2023-06-01T07:58:47.174Z,5.30
2023-06-01T08:01:51.131Z,5.95
2023-06-01T08:04:55.437Z,5.70
2023-06-01T08:08:03.390Z,6.57
2023-06-01T08:11:05.172Z,5.22
2023-06-01T08:14:09.973Z,5.57
2023-06-01T08:17:12.178Z,5.85
2023-06-01T08:20:14.594Z,6.07
2023-06-01T08:23:18.270Z,6.00
2023-06-01T08:26:20.821Z,5.68
2023-06-01T08:29:34.727Z,5.85
2023-06-01T08:32:44.659Z,5.32
2023-06-01T08:35:47.737Z,5.38
2023-06-01T08:38:51.853Z,5.72
2023-06-01T08:42:04.821Z,5.20
2023-06-01T08:45:07.559Z,5.53
2023-06-01T08:48:12.141Z,5.50
2023-06-01T08:51:14.971Z,5.10
2023-06-01T08:54:18.476Z,5.47
2023-06-01T08:57:23.064Z,5.50
2023-06-01T09:00:25.354Z,6.10
2023-06-01T09:03:28.139Z,5.78
2023-06-01T09:06:32.091Z,5.00
2023-06-01T09:09:38.020Z,5.18
2023-06-01T09:12:55.810Z,5.13
2023-06-01T09:15:57.840Z,5.93
2023-06-01T09:19:02.828Z,5.43
2023-06-01T09:22:05.382Z,5.90
2023-06-01T09:25:09.130Z,6.05
2023-06-01T09:28:13.577Z,5.55
2023-06-01T09:31:38.757Z,5.30
2023-06-01T09:34:45.575Z,5.93
2023-06-01T09:37:57.448Z,5.22
2023-06-01T09:41:04.856Z,5.35
2023-06-01T09:44:06.750Z,5.47
2023-06-01T09:47:11.889Z,5.30
2023-06-01T09:50:33.621Z,4.95
2023-06-01T09:53:45.351Z,5.70
2023-06-01T09:56:49.937Z,5.30
2023-06-01T09:59:52.232Z,5.60
2023-06-01T10:02:55.703Z,5.30
2023-06-01T10:05:58.792Z,5.75
2023-06-01T10:09:01.375Z,5.03
2023-06-01T10:12:06.564Z,4.78
2023-06-01T10:15:25.694Z,5.25
2023-06-01T10:18:35.496Z,5.35
2023-06-01T10:21:37.964Z,5.40
2023-06-01T10:24:43.408Z,5.70
2023-06-01T10:27:56.594Z,5.25
2023-06-01T10:31:40.352Z,5.13
2023-06-01T10:34:46.617Z,5.40
2023-06-01T10:38:22.035Z,4.90
2023-06-01T10:41:31.789Z,4.75
2023-06-01T10:44:50.317Z,5.20
2023-06-01T10:47:54.526Z,4.43
2023-06-01T10:51:20.882Z,4.72
2023-06-01T10:54:31.238Z,4.90
2023-06-01T10:57:36.708Z,5.18
2023-06-01T11:00:42.336Z,5.40
2023-06-01T11:03:45.118Z,5.30
2023-06-01T11:06:47.002Z,5.25
2023-06-01T11:09:48.811Z,5.38
2023-06-01T11:13:12.923Z,4.68
2023-06-01T11:16:34.528Z,5.03
2023-06-01T11:19:36.946Z,4.22
2023-06-01T11:22:39.210Z,4.55
2023-06-01T11:25:43.592Z,4.88
2023-06-01T11:28:46.373Z,4.90
2023-06-01T11:31:53.339Z,4.50
2023-06-01T11:34:55.748Z,5.20
2023-06-01T11:37:59.593Z,4.68
2023-06-01T11:41:02.124Z,4.90
2023-06-01T11:44:04.063Z,4.90
2023-06-01T11:47:08.592Z,4.80
2023-06-01T11:50:21.847Z,4.28
2023-06-01T11:53:25.085Z,4.70
2023-06-01T11:56:31.351Z,4.63
2023-06-01T11:59:38.334Z,5.07
2023-06-01T12:02:41.738Z,4.40
2023-06-01T12:05:44.101Z,4.72
2023-06-01T12:08:46.151Z,4.53
2023-06-01T12:11:49.436Z,4.60
2023-06-01T12:14:52.608Z,4.20
2023-06-01T12:17:59.924Z,4.82
2023-06-01T12:21:10.020Z,4.82
2023-06-01T12:24:13.290Z,4.55
2023-06-01T12:27:16.353Z,4.72
2023-06-01T12:30:21.752Z,4.97
2023-06-01T12:33:35.453Z,4.22
2023-06-01T12:36:38.506Z,3.80
2023-06-01T12:39:42.468Z,4.70
2023-06-01T12:42:46.924Z,4.50
2023-06-01T12:45:48.770Z,4.15
2023-06-01T12:48:53.225Z,4.25
2023-06-01T12:51:55.555Z,4.03
2023-06-01T12:54:59.703Z,4.32
2023-06-01T12:58:01.955Z,4.80
2023-06-01T13:01:05.011Z,4.82
2023-06-01T13:04:09.078Z,4.10
2023-06-01T13:07:10.935Z,4.30
2023-06-01T13:10:13.303Z,4.32
2023-06-01T13:13:15.534Z,4.13
2023-06-01T13:16:17.983Z,4.25
2023-06-01T13:19:27.285Z,3.97
2023-06-01T13:22:31.836Z,4.40
2023-06-01T13:25:35.936Z,4.70
2023-06-01T13:28:37.737Z,4.60
2023-06-01T13:31:42.634Z,4.50
2023-06-01T13:34:48.165Z,4.78
2023-06-01T13:37:50.029Z,4.00
2023-06-01T13:40:51.887Z,4.20
2023-06-01T13:43:54.155Z,4.60
2023-06-01T13:46:56.684Z,4.45
2023-06-01T13:50:00.470Z,4.35
2023-06-01T13:53:02.244Z,4.30
2023-06-01T13:56:06.189Z,4.05
2023-06-01T13:59:10.439Z,3.70
2023-06-01T14:02:12.488Z,4.32
2023-06-01T14:05:20.098Z,4.70
2023-06-01T14:08:30.111Z,4.30
2023-06-01T14:11:33.016Z,4.13
2023-06-01T14:14:37.765Z,4.50
2023-06-01T14:17:42.336Z,4.22
2023-06-01T14:20:48.144Z,4.15
2023-06-01T14:23:51.501Z,3.95
2023-06-01T14:26:53.341Z,3.72
2023-06-01T14:29:56.286Z,3.55
2023-06-01T14:33:00.474Z,3.60
2023-06-01T14:36:04.167Z,4.20
2023-06-01T14:39:06.318Z,3.55
2023-06-01T14:42:08.554Z,4.25
2023-06-01T14:45:11.219Z,3.83
2023-06-01T14:48:12.992Z,4.07
2023-06-01T14:51:16.333Z,4.28
2023-06-01T14:54:30.498Z,3.65
2023-06-01T14:57:40.968Z,3.63
2023-06-01T15:00:43.132Z,4.00
2023-06-01T15:03:47.363Z,4.65
2023-06-01T15:06:50.956Z,3.78
2023-06-01T15:09:53.326Z,4.38
2023-06-01T15:12:56.666Z,4.15
2023-06-01T15:15:59.011Z,3.95
2023-06-01T15:19:00.759Z,4.28
2023-06-01T15:22:05.694Z,3.80
2023-06-01T15:25:11.511Z,4.15
2023-06-01T15:28:13.625Z,3.95
2023-06-01T15:31:15.692Z,4.05
2023-06-01T15:34:17.736Z,3.60
2023-06-01T15:37:21.900Z,4.10
2023-06-01T15:40:24.278Z,3.83
2023-06-01T15:43:27.599Z,4.13
2023-06-01T15:46:29.903Z,3.75
2023-06-01T15:49:33.060Z,3.78
2023-06-01T15:52:38.508Z,4.55
2023-06-01T15:55:40.577Z,4.20
2023-06-01T15:58:44.852Z,3.85
2023-06-01T16:01:46.918Z,4.20
2023-06-01T16:04:48.951Z,4.07
2023-06-01T16:07:52.697Z,3.80
2023-06-01T16:10:54.643Z,3.75
2023-06-01T16:13:56.580Z,4.00
2023-06-01T16:17:02.935Z,3.78
2023-06-01T16:20:07.085Z,4.13
2023-06-01T16:23:10.638Z,4.07
2023-06-01T16:26:12.925Z,4.30
2023-06-01T16:29:14.932Z,4.13
2023-06-01T16:32:17.214Z,4.05
2023-06-01T16:35:19.298Z,3.67
2023-06-01T16:38:30.029Z,4.30
2023-06-01T16:41:39.563Z,4.22
2023-06-01T16:44:41.891Z,3.65
2023-06-01T16:47:43.891Z,3.67
2023-06-01T16:50:46.928Z,3.67
2023-06-01T16:53:53.344Z,3.90
2023-06-01T16:56:55.110Z,3.42
2023-06-01T16:59:58.315Z,3.92
2023-06-01T17:03:02.735Z,3.70
2023-06-01T17:06:08.983Z,4.43
2023-06-01T17:09:13.979Z,3.60
2023-06-01T17:12:16.068Z,3.92
2023-06-01T17:15:19.003Z,4.30
2023-06-01T17:18:22.279Z,3.47
2023-06-01T17:21:24.756Z,3.78
2023-06-01T17:24:30.437Z,3.92
2023-06-01T17:27:32.290Z,3.55
2023-06-01T17:30:34.516Z,4.30
2023-06-01T17:33:36.672Z,4.65
2023-06-01T17:36:41.444Z,4.07
2023-06-01T17:39:44.623Z,3.92
2023-06-01T17:42:46.644Z,4.25
2023-06-01T17:45:48.666Z,4.07
2023-06-01T17:48:53.078Z,4.20
2023-06-01T17:51:57.441Z,4.43
2023-06-01T17:55:00.759Z,4.55
2023-06-01T17:58:02.936Z,4.18
2023-06-01T18:01:06.785Z,3.65
2023-06-01T18:04:09.944Z,4.10
2023-06-01T18:07:12.035Z,4.03
2023-06-01T18:10:16.629Z,3.83
2023-06-01T18:13:18.535Z,4.07
2023-06-01T18:16:21.578Z,3.63
2023-06-01T18:19:23.771Z,3.67
2023-06-01T18:22:25.992Z,3.80
2023-06-01T18:25:30.828Z,3.97
2023-06-01T18:28:33.623Z,3.38
2023-06-01T18:31:36.081Z,4.00
2023-06-01T18:34:38.614Z,4.05
2023-06-01T18:37:41.588Z,4.00
2023-06-01T18:40:47.333Z,3.65
2023-06-01T18:43:50.022Z,3.33
2023-06-01T18:46:52.259Z,3.80
2023-06-01T18:49:54.946Z,4.30
2023-06-01T18:52:57.211Z,4.13
2023-06-01T18:56:01.117Z,3.83
2023-06-01T18:59:05.615Z,4.40
2023-06-01T19:02:10.237Z,3.90
2023-06-01T19:05:12.528Z,4.05
2023-06-01T19:08:22.313Z,4.13
2023-06-01T19:11:28.567Z,4.35
2023-06-01T19:14:30.935Z,4.32
2023-06-01T19:17:35.565Z,5.10
2023-06-01T19:21:07.022Z,5.22
2023-06-01T19:24:10.856Z,4.68
2023-06-01T19:27:15.687Z,4.72
2023-06-01T19:30:18.284Z,4.30
2023-06-01T19:33:21.872Z,4.55
2023-06-01T19:36:50.769Z,4.50
2023-06-01T19:39:54.824Z,4.70
2023-06-01T19:42:58.782Z,5.22
2023-06-01T19:46:08.382Z,4.50
2023-06-01T19:49:15.761Z,4.53
2023-06-01T19:52:38.496Z,4.97
2023-06-01T19:55:43.226Z,5.03
2023-06-01T19:58:49.392Z,4.13
2023-06-01T20:01:52.422Z,4.70
2023-06-01T20:04:57.388Z,4.68
2023-06-01T20:08:02.541Z,4.75
2023-06-01T20:11:05.551Z,5.32
2023-06-01T20:14:14.405Z,4.20
2023-06-01T20:17:16.997Z,4.78
2023-06-01T20:20:19.791Z,4.63
2023-06-01T20:23:24.164Z,4.55
2023-06-01T20:26:26.673Z,4.47
2023-06-01T20:29:42.350Z,4.47
2023-06-01T20:32:45.232Z,4.50
2023-06-01T20:35:47.425Z,4.35
2023-06-01T20:38:49.629Z,4.60
2023-06-01T20:41:52.666Z,4.57
2023-06-01T20:44:56.433Z,4.55
2023-06-01T20:47:58.564Z,4.60
2023-06-01T20:51:03.955Z,4.68
2023-06-01T20:54:08.258Z,4.60
2023-06-01T20:57:11.894Z,4.43
2023-06-01T21:00:16.449Z,4.28
2023-06-01T21:03:18.628Z,4.82
2023-06-01T21:06:20.711Z,4.60
2023-06-01T21:09:23.485Z,4.78
2023-06-01T21:12:26.260Z,4.55
2023-06-01T21:15:30.816Z,4.68
2023-06-01T21:18:32.869Z,4.60
2023-06-01T21:21:35.832Z,4.47
2023-06-01T21:24:38.176Z,4.50
2023-06-01T21:27:40.205Z,4.80
2023-06-01T21:30:43.866Z,5.03
2023-06-01T21:33:47.322Z,5.25
2023-06-01T21:36:49.500Z,5.07
2023-06-01T21:39:51.660Z,4.60
2023-06-01T21:43:07.709Z,4.93
2023-06-01T21:46:12.410Z,5.82
2023-06-01T21:49:14.414Z,4.95
2023-06-01T21:52:16.490Z,4.90
2023-06-01T21:55:18.559Z,4.97
2023-06-01T21:58:22.330Z,4.20
2023-06-01T22:01:26.179Z,4.45
2023-06-01T22:04:28.085Z,3.97
2023-06-01T22:07:30.511Z,5.63
2023-06-01T22:10:32.557Z,5.03
2023-06-01T22:13:34.763Z,4.50
2023-06-01T22:16:38.311Z,4.07
2023-06-01T22:19:40.477Z,4.63
2023-06-01T22:22:44.028Z,4.82
2023-06-01T22:25:46.151Z,4.78
2023-06-01T22:28:48.226Z,4.68
2023-06-01T22:31:52.434Z,4.97
2023-06-01T22:34:54.854Z,4.60
2023-06-01T22:37:57.707Z,4.47
2023-06-01T22:41:01.062Z,4.55
2023-06-01T22:44:04.251Z,4.65
2023-06-01T22:47:08.213Z,4.95
2023-06-01T22:50:11.225Z,4.30
2023-06-01T22:53:13.054Z,5.03
2023-06-01T22:56:15.136Z,5.18
2023-06-01T22:59:17.427Z,4.82
2023-06-01T23:02:33.543Z,4.82
2023-06-01T23:05:35.715Z,4.85
2023-06-01T23:08:37.692Z,4.38
2023-06-01T23:11:39.494Z,4.78
2023-06-01T23:14:42.168Z,4.90
2023-06-01T23:17:46.353Z,4.88
2023-06-01T23:20:49.030Z,4.70
2023-06-01T23:23:50.879Z,4.63
2023-06-01T23:26:53.132Z,4.65
2023-06-01T23:29:54.982Z,5.28
2023-06-01T23:32:58.692Z,4.30
2023-06-01T23:36:00.733Z,5.40
2023-06-01T23:39:05.845Z,4.78
2023-06-01T23:42:11.146Z,4.72
2023-06-01T23:45:19.021Z,5.18
2023-06-01T23:48:26.112Z,4.97
2023-06-01T23:51:29.414Z,5.35
2023-06-01T23:54:31.473Z,4.72
2023-06-01T23:57:33.597Z,5.47
